sensor_id;sensor_type;location;lat;lon;timestamp;pressure;altitude;pressure_sealevel;temperature;humidity
11302;BME280;5706;50.650;13.380;2023-03-18T00:00:15;91126.34;;;-140.63;41.03
11302;BME280;5706;50.650;13.380;2023-03-18T00:02:47;91102.25;;;-140.63;40.75
11302;BME280;5706;50.650;13.380;2023-03-18T00:05:15;91116.31;;;-140.63;40.47
11302;BME280;5706;50.650;13.380;2023-03-18T00:07:42;91158.47;;;-140.63;40.37
11302;BME280;5706;50.650;13.380;2023-03-18T00:10:15;91142.41;;;-140.63;39.80
11302;BME280;5706;50.650;13.380;2023-03-18T00:12:43;91108.28;;;-140.63;40.19
11302;BME280;5706;50.650;13.380;2023-03-18T00:15:12;91200.66;;;-140.63;40.58
11302;BME280;5706;50.650;13.380;2023-03-18T00:17:42;91148.44;;;-140.63;40.65
11302;BME280;5706;50.650;13.380;2023-03-18T00:20:12;91168.53;;;-140.63;40.50
11302;BME280;5706;50.650;13.380;2023-03-18T00:22:43;91138.41;;;-140.63;40.55
11302;BME280;5706;50.650;13.380;2023-03-18T00:25:12;91132.38;;;-140.63;40.80
11302;BME280;5706;50.650;13.380;2023-03-18T00:27:40;91066.09;;;-140.63;40.63
11302;BME280;5706;50.650;13.380;2023-03-18T00:30:10;91100.25;;;-140.63;40.70
11302;BME280;5706;50.650;13.380;2023-03-18T00:32:38;91138.41;;;-140.63;40.64
11302;BME280;5706;50.650;13.380;2023-03-18T00:35:07;91130.38;;;-140.63;40.55
11302;BME280;5706;50.650;13.380;2023-03-18T00:37:36;91108.28;;;-140.63;40.35
11302;BME280;5706;50.650;13.380;2023-03-18T00:40:07;91132.38;;;-140.63;39.85
11302;BME280;5706;50.650;13.380;2023-03-18T00:42:41;91150.44;;;-140.63;40.14
11302;BME280;5706;50.650;13.380;2023-03-18T00:45:16;91106.25;;;-140.63;40.45
11302;BME280;5706;50.650;13.380;2023-03-18T00:47:44;91126.34;;;-140.63;39.91
11302;BME280;5706;50.650;13.380;2023-03-18T00:50:12;91118.31;;;-140.63;40.34
11302;BME280;5706;50.650;13.380;2023-03-18T00:52:41;91154.47;;;-140.63;40.64
11302;BME280;5706;50.650;13.380;2023-03-18T00:55:09;91134.38;;;-140.63;40.60
11302;BME280;5706;50.650;13.380;2023-03-18T00:57:38;91130.38;;;-140.63;40.62
11302;BME280;5706;50.650;13.380;2023-03-18T01:00:07;91142.41;;;-140.63;40.37
11302;BME280;5706;50.650;13.380;2023-03-18T01:02:35;91122.34;;;-140.63;40.75
11302;BME280;5706;50.650;13.380;2023-03-18T01:05:04;91172.53;;;-140.63;40.26
11302;BME280;5706;50.650;13.380;2023-03-18T01:07:31;91116.31;;;-140.63;40.74
11302;BME280;5706;50.650;13.380;2023-03-18T01:10:02;91156.47;;;-140.63;41.00
11302;BME280;5706;50.650;13.380;2023-03-18T01:12:30;91174.56;;;-140.63;40.93
11302;BME280;5706;50.650;13.380;2023-03-18T01:14:58;91216.72;;;-140.63;41.38
11302;BME280;5706;50.650;13.380;2023-03-18T01:17:26;91164.50;;;-140.63;41.33
11302;BME280;5706;50.650;13.380;2023-03-18T01:19:54;91134.38;;;-140.63;41.04
11302;BME280;5706;50.650;13.380;2023-03-18T01:22:21;91172.53;;;-140.63;40.90
11302;BME280;5706;50.650;13.380;2023-03-18T01:24:49;91166.53;;;-140.63;40.94
11302;BME280;5706;50.650;13.380;2023-03-18T01:27:18;91182.59;;;-140.63;40.80
11302;BME280;5706;50.650;13.380;2023-03-18T01:29:46;91188.63;;;-140.63;40.61
11302;BME280;5706;50.650;13.380;2023-03-18T01:32:13;91150.44;;;-140.63;40.46
11302;BME280;5706;50.650;13.380;2023-03-18T01:34:41;91200.66;;;-140.63;41.40
11302;BME280;5706;50.650;13.380;2023-03-18T01:37:09;91172.53;;;-140.63;40.95
11302;BME280;5706;50.650;13.380;2023-03-18T01:39:37;91164.50;;;-140.63;40.54
11302;BME280;5706;50.650;13.380;2023-03-18T01:42:05;91190.63;;;-140.63;40.78
11302;BME280;5706;50.650;13.380;2023-03-18T01:44:34;91166.53;;;-140.63;41.28
11302;BME280;5706;50.650;13.380;2023-03-18T01:47:02;91182.59;;;-140.63;41.36
11302;BME280;5706;50.650;13.380;2023-03-18T01:49:32;91166.53;;;-140.63;41.07
11302;BME280;5706;50.650;13.380;2023-03-18T01:52:06;91194.63;;;-140.63;41.10
11302;BME280;5706;50.650;13.380;2023-03-18T01:54:40;91158.47;;;-140.63;41.03
11302;BME280;5706;50.650;13.380;2023-03-18T01:57:10;91174.56;;;-140.63;41.23
11302;BME280;5706;50.650;13.380;2023-03-18T01:59:41;91216.72;;;-140.63;41.24
11302;BME280;5706;50.650;13.380;2023-03-18T02:02:18;91202.66;;;-140.63;41.24
11302;BME280;5706;50.650;13.380;2023-03-18T02:04:52;91182.59;;;-140.63;40.95
11302;BME280;5706;50.650;13.380;2023-03-18T02:07:23;91176.56;;;-140.63;40.76
11302;BME280;5706;50.650;13.380;2023-03-18T02:09:53;91182.59;;;-140.63;41.08
11302;BME280;5706;50.650;13.380;2023-03-18T02:12:25;91182.59;;;-140.63;40.80
11302;BME280;5706;50.650;13.380;2023-03-18T02:14:58;91186.59;;;-140.63;40.79
11302;BME280;5706;50.650;13.380;2023-03-18T02:17:31;91200.66;;;-140.63;41.16
11302;BME280;5706;50.650;13.380;2023-03-18T02:20:10;91192.63;;;-140.63;40.80
11302;BME280;5706;50.650;13.380;2023-03-18T02:22:54;91176.56;;;-140.63;40.46
11302;BME280;5706;50.650;13.380;2023-03-18T02:25:35;91192.63;;;-140.63;40.91
11302;BME280;5706;50.650;13.380;2023-03-18T02:28:13;91218.75;;;-140.63;41.26
11302;BME280;5706;50.650;13.380;2023-03-18T02:30:46;91192.63;;;-140.63;40.78
11302;BME280;5706;50.650;13.380;2023-03-18T02:33:18;91172.53;;;-140.63;40.54
11302;BME280;5706;50.650;13.380;2023-03-18T02:35:53;91066.09;;;-140.63;41.07
11302;BME280;5706;50.650;13.380;2023-03-18T02:38:23;91196.66;;;-140.63;41.28
11302;BME280;5706;50.650;13.380;2023-03-18T02:40:52;91202.66;;;-140.63;41.44
11302;BME280;5706;50.650;13.380;2023-03-18T02:43:23;91204.69;;;-140.63;40.80
11302;BME280;5706;50.650;13.380;2023-03-18T02:46:28;91206.69;;;-140.63;41.33
11302;BME280;5706;50.650;13.380;2023-03-18T02:49:01;91210.72;;;-140.63;41.78
11302;BME280;5706;50.650;13.380;2023-03-18T02:51:32;91206.69;;;-140.63;41.73
11302;BME280;5706;50.650;13.380;2023-03-18T02:54:05;91188.63;;;-140.63;41.28
11302;BME280;5706;50.650;13.380;2023-03-18T02:56:35;91230.78;;;-140.63;41.77
11302;BME280;5706;50.650;13.380;2023-03-18T02:59:11;91204.69;;;-140.63;41.38
11302;BME280;5706;50.650;13.380;2023-03-18T03:01:41;91222.75;;;-140.63;41.33
11302;BME280;5706;50.650;13.380;2023-03-18T03:04:12;91190.63;;;-140.63;41.57
11302;BME280;5706;50.650;13.380;2023-03-18T03:06:41;91198.66;;;-140.63;41.50
11302;BME280;5706;50.650;13.380;2023-03-18T03:09:11;91242.84;;;-140.63;41.48
11302;BME280;5706;50.650;13.380;2023-03-18T03:11:41;91182.59;;;-140.63;41.59
11302;BME280;5706;50.650;13.380;2023-03-18T03:14:12;91224.78;;;-140.63;42.13
11302;BME280;5706;50.650;13.380;2023-03-18T03:16:41;91236.81;;;-140.63;41.79
11302;BME280;5706;50.650;13.380;2023-03-18T03:19:09;91204.69;;;-140.63;41.86
11302;BME280;5706;50.650;13.380;2023-03-18T03:21:37;91250.88;;;-140.63;41.85
